Time;durP1;ratioP1;P1;durP2;ratioP2;P2;SDS_P1;SDS_P2;PMS_P1;PMS_P2;Temp;Humidity;BMP_temperature;BMP_pressure;BME280_temperature;BME280_humidity;BME280_pressure;Samples;Min_cycle;Max_cycle;Signal;HPM_P1;HPM_P2
2023/12/08 00:01:20;;;;;;;9.20;5.68;;;;;;;2.17;75.57;99689.38;4930238;29;20030;-96
2023/12/08 00:03:45;;;;;;;7.15;5.47;;;;;;;2.06;75.72;99690.81;4912850;29;20047;-96
2023/12/08 00:06:11;;;;;;;7.32;4.97;;;;;;;2.13;75.77;99680.19;4913091;29;20022;-96
2023/12/08 00:08:40;;;;;;;6.75;4.88;;;;;;;2.33;74.38;99682.81;4913444;29;20039;-96
2023/12/08 00:11:06;;;;;;;6.43;4.72;;;;;;;2.23;75.01;99670.78;4913600;29;20031;-96
2023/12/08 00:13:31;;;;;;;6.20;4.63;;;;;;;2.14;74.62;99664.06;4911666;29;20516;-96
2023/12/08 00:15:58;;;;;;;5.97;4.65;;;;;;;2.42;73.70;99693.00;4928589;29;20064;-96
2023/12/08 00:18:26;;;;;;;6.28;4.10;;;;;;;2.09;73.18;99676.31;4928792;29;20027;-96
2023/12/08 00:20:57;;;;;;;5.35;4.07;;;;;;;1.90;73.35;99662.81;4927296;29;20027;-96
2023/12/08 00:23:22;;;;;;;6.53;4.88;;;;;;;2.01;74.02;99672.00;4927510;29;20031;-96
2023/12/08 00:25:49;;;;;;;5.60;4.05;;;;;;;1.90;73.57;99657.53;4909815;28;20101;-95
2023/12/08 00:28:15;;;;;;;5.30;3.78;;;;;;;1.91;73.65;99674.25;4910663;29;20446;-96
2023/12/08 00:30:40;;;;;;;5.18;3.92;;;;;;;1.91;74.44;99676.91;4911905;29;20026;-96
2023/12/08 00:33:06;;;;;;;6.00;4.22;;;;;;;1.94;74.50;99697.75;4911884;29;20114;-96
2023/12/08 00:35:32;;;;;;;5.13;3.72;;;;;;;1.83;74.43;99683.25;4911175;29;20054;-96
2023/12/08 00:38:01;;;;;;;5.60;3.60;;;;;;;1.76;74.28;99679.78;4911921;29;20058;-96
2023/12/08 00:40:26;;;;;;;4.75;3.63;;;;;;;1.77;74.59;99686.72;4927261;29;20027;-96
2023/12/08 00:42:53;;;;;;;5.00;3.58;;;;;;;1.89;73.97;99702.84;4926356;29;20039;-96
2023/12/08 00:45:19;;;;;;;4.43;3.40;;;;;;;1.90;74.65;99692.03;4921138;29;20054;-95
2023/12/08 00:47:45;;;;;;;4.22;3.03;;;;;;;1.96;74.83;99698.38;4936153;29;20102;-95
2023/12/08 00:50:14;;;;;;;4.78;3.42;;;;;;;1.91;75.48;99693.69;4936471;29;20027;-95
2023/12/08 00:52:39;;;;;;;3.80;3.10;;;;;;;1.87;75.94;99694.28;4936623;29;20032;-96
2023/12/08 00:55:07;;;;;;;5.88;3.10;;;;;;;1.90;75.17;99704.50;4935444;29;20023;-94
2023/12/08 00:57:33;;;;;;;2.90;2.30;;;;;;;1.88;75.52;99702.03;4920713;29;20023;-96
2023/12/08 00:59:59;;;;;;;3.35;2.67;;;;;;;1.68;75.12;99682.63;4936131;29;20050;-96
2023/12/08 01:02:25;;;;;;;3.72;2.70;;;;;;;1.86;74.37;99690.81;4935725;29;20028;-95
2023/12/08 01:04:50;;;;;;;3.85;2.08;;;;;;;2.04;74.25;99713.31;4920534;29;20050;-94
2023/12/08 01:07:16;;;;;;;3.40;2.47;;;;;;;1.78;73.97;99697.13;4936750;29;20030;-96
2023/12/08 01:09:42;;;;;;;3.10;2.40;;;;;;;1.79;74.02;99697.97;4920033;29;20055;-96
2023/12/08 01:12:08;;;;;;;3.00;2.33;;;;;;;1.92;74.21;99697.97;4920079;29;20062;-95
2023/12/08 01:14:37;;;;;;;2.78;2.22;;;;;;;1.94;74.43;99693.25;4935667;29;20044;-95
2023/12/08 01:17:03;;;;;;;3.47;2.65;;;;;;;1.99;74.31;99695.28;4951938;29;20059;-96
2023/12/08 01:19:32;;;;;;;3.55;2.33;;;;;;;1.82;75.03;99678.97;4920260;29;20031;-95
2023/12/08 01:21:57;;;;;;;4.28;2.70;;;;;;;1.94;74.88;99692.44;4921048;29;20099;-96
2023/12/08 01:24:28;;;;;;;4.03;2.47;;;;;;;2.01;74.65;99674.66;4935569;29;20023;-96
2023/12/08 01:26:55;;;;;;;3.65;2.75;;;;;;;2.18;74.02;99685.72;4936505;29;20039;-95
2023/12/08 01:29:25;;;;;;;3.92;2.70;;;;;;;1.99;74.80;99674.91;4951717;29;20481;-95
2023/12/08 01:31:51;;;;;;;3.28;2.53;;;;;;;2.20;74.44;99692.44;4927189;29;20062;-96
2023/12/08 01:34:17;;;;;;;3.40;2.50;;;;;;;2.17;74.07;99684.06;4911370;29;20055;-96
2023/12/08 01:36:43;;;;;;;4.07;2.70;;;;;;;2.04;74.23;99665.50;4910653;29;20031;-95
2023/12/08 01:39:12;;;;;;;4.00;2.85;;;;;;;2.22;75.27;99684.25;4914391;29;20114;-95
2023/12/08 01:41:38;;;;;;;3.78;2.70;;;;;;;1.99;75.35;99661.63;4915236;29;20019;-96
2023/12/08 01:44:04;;;;;;;3.78;2.95;;;;;;;2.03;74.73;99656.69;4929890;29;20039;-96
2023/12/08 01:46:30;;;;;;;3.70;2.55;;;;;;;2.12;75.28;99671.41;4914819;29;20054;-96
2023/12/08 01:48:56;;;;;;;4.05;2.90;;;;;;;2.28;74.89;99672.78;4919363;29;20062;-96
2023/12/08 01:51:24;;;;;;;4.60;2.88;;;;;;;2.19;75.74;99666.88;4922358;29;20027;-96
2023/12/08 01:53:53;;;;;;;4.05;3.17;;;;;;;2.11;76.34;99656.47;4954477;29;20086;-95
2023/12/08 01:56:23;;;;;;;3.80;3.08;;;;;;;2.02;76.33;99639.13;4969839;29;20034;-95
2023/12/08 01:58:48;;;;;;;4.45;3.25;;;;;;;2.22;75.91;99668.31;4954622;29;20043;-96
2023/12/08 02:01:16;;;;;;;3.85;2.80;;;;;;;2.12;75.88;99644.03;4922843;29;20027;-95
2023/12/08 02:03:44;;;;;;;5.63;3.35;;;;;;;2.12;75.73;99650.16;4954617;29;20051;-96
2023/12/08 02:06:11;;;;;;;4.78;3.45;;;;;;;2.07;76.63;99662.41;4951904;29;20019;-95
2023/12/08 02:08:37;;;;;;;4.88;3.28;;;;;;;2.03;76.77;99648.72;4919836;29;20049;-94
2023/12/08 02:11:03;;;;;;;6.03;3.47;;;;;;;2.16;76.31;99671.81;4935828;29;20098;-94
2023/12/08 02:13:29;;;;;;;4.65;3.30;;;;;;;2.16;75.98;99675.28;4920047;29;20050;-94
2023/12/08 02:16:26;;;;;;;4.22;3.35;;;;;;;2.02;77.67;99671.00;4934624;29;20394;-93
2023/12/08 02:18:52;;;;;;;4.78;3.67;;;;;;;2.02;77.71;99686.94;4936708;29;20035;-93
2023/12/08 02:21:17;;;;;;;5.60;3.47;;;;;;;2.08;77.50;99677.34;4919145;29;20474;-94
2023/12/08 02:23:50;;;;;;;6.03;4.05;;;;;;;1.97;77.80;99662.81;4934135;29;20035;-94
2023/12/08 02:26:17;;;;;;;5.25;3.60;;;;;;;1.93;77.86;99659.78;4934426;29;20042;-95
2023/12/08 02:28:48;;;;;;;5.45;3.72;;;;;;;2.09;77.50;99681.63;4934325;29;20094;-96
2023/12/08 02:31:16;;;;;;;5.47;3.58;;;;;;;2.11;77.93;99690.19;4934660;29;20159;-94
2023/12/08 02:33:44;;;;;;;4.80;3.38;;;;;;;1.99;77.56;99679.38;4927714;29;20110;-95
2023/12/08 02:36:09;;;;;;;5.47;3.97;;;;;;;2.04;78.13;99687.56;4928042;29;20027;-94
2023/12/08 02:38:35;;;;;;;5.57;3.72;;;;;;;2.06;77.30;99695.31;4911641;29;20057;-94
2023/12/08 02:41:01;;;;;;;5.75;3.63;;;;;;;2.02;77.18;99684.28;4912309;29;20062;-94
2023/12/08 02:43:26;;;;;;;5.07;3.60;;;;;;;2.06;76.95;99690.00;4912176;29;20481;-95
2023/12/08 02:45:52;;;;;;;5.15;3.45;;;;;;;2.07;76.86;99684.47;4912013;29;20054;-96
2023/12/08 02:48:17;;;;;;;5.35;3.70;;;;;;;2.17;77.44;99698.16;4911767;29;20094;-95
2023/12/08 02:50:43;;;;;;;4.00;3.17;;;;;;;2.03;77.53;99685.91;4926495;29;20474;-94
2023/12/08 02:53:09;;;;;;;4.97;3.70;;;;;;;1.98;77.83;99691.84;4927191;29;20046;-94
2023/12/08 02:55:34;;;;;;;6.82;4.25;;;;;;;1.87;78.16;99687.16;4911475;29;20045;-95
2023/12/08 02:58:00;;;;;;;4.93;3.58;;;;;;;1.94;78.17;99687.13;4928335;29;20058;-95
2023/12/08 03:00:26;;;;;;;5.40;3.75;;;;;;;1.95;78.05;99686.94;4927689;29;20548;-95
2023/12/08 03:02:52;;;;;;;5.57;3.75;;;;;;;1.86;78.48;99671.41;4911638;29;20083;-96
2023/12/08 03:05:19;;;;;;;7.30;3.92;;;;;;;1.91;77.84;99675.09;4927758;29;20050;-95
2023/12/08 03:07:45;;;;;;;5.35;4.03;;;;;;;1.97;77.88;99670.78;4911849;29;20173;-96
2023/12/08 03:10:11;;;;;;;5.97;4.18;;;;;;;1.98;78.66;99688.38;4926468;29;20458;-96
2023/12/08 03:12:36;;;;;;;4.43;3.63;;;;;;;2.14;78.31;99693.28;4911026;29;20032;-95
2023/12/08 03:15:02;;;;;;;6.57;4.53;;;;;;;2.02;78.00;99673.66;4911120;29;20492;-95
2023/12/08 03:17:28;;;;;;;5.95;4.90;;;;;;;2.03;78.26;99688.56;4926865;29;20122;-95
2023/12/08 03:19:53;;;;;;;4.70;3.33;;;;;;;1.77;77.19;99676.91;4910932;29;20031;-96
2023/12/08 03:22:19;;;;;;;4.45;3.13;;;;;;;1.87;75.65;99665.06;4928986;29;20027;-96
2023/12/08 03:24:44;;;;;;;4.43;3.15;;;;;;;1.87;76.34;99662.41;4926632;28;20118;-95
2023/12/08 03:27:10;;;;;;;3.50;2.58;;;;;;;1.81;76.76;99688.75;4911475;29;20105;-95
2023/12/08 03:29:40;;;;;;;3.97;2.90;;;;;;;1.79;76.79;99680.19;4926944;29;20054;-95
2023/12/08 03:32:06;;;;;;;4.32;3.15;;;;;;;1.72;76.30;99659.97;4912540;29;20036;-93
2023/12/08 03:34:32;;;;;;;3.67;2.63;;;;;;;1.92;75.63;99694.50;4926909;29;20390;-95
2023/12/08 03:36:57;;;;;;;3.50;2.85;;;;;;;1.93;74.72;99675.72;4910881;29;20174;-95
2023/12/08 03:39:23;;;;;;;4.22;2.67;;;;;;;1.95;74.91;99670.16;4926543;29;20126;-96
2023/12/08 03:41:48;;;;;;;4.00;2.97;;;;;;;1.96;75.46;99667.31;4926483;29;20485;-96
2023/12/08 03:44:14;;;;;;;4.28;2.88;;;;;;;1.78;75.86;99665.25;4927348;29;20051;-95
2023/12/08 03:46:43;;;;;;;3.63;2.75;;;;;;;2.02;75.30;99684.28;4910100;29;20031;-96
2023/12/08 03:49:09;;;;;;;3.90;2.85;;;;;;;1.81;75.59;99677.34;4925849;29;20114;-96
2023/12/08 03:51:34;;;;;;;5.25;3.80;;;;;;;2.01;75.53;99696.75;4911811;29;20110;-96
2023/12/08 03:54:00;;;;;;;4.82;3.35;;;;;;;1.91;75.50;99680.41;4909814;29;20027;-95
2023/12/08 03:56:25;;;;;;;5.22;3.85;;;;;;;1.76;76.07;99669.16;4911287;29;20121;-95
2023/12/08 03:58:51;;;;;;;4.32;3.53;;;;;;;1.78;74.77;99675.06;4926939;29;20055;-96
2023/12/08 04:01:17;;;;;;;5.07;3.80;;;;;;;1.94;74.66;99695.09;4927193;29;20011;-96
2023/12/08 04:03:43;;;;;;;6.28;4.10;;;;;;;1.95;74.77;99684.28;4926767;29;20525;-96
2023/12/08 04:06:08;;;;;;;5.55;3.90;;;;;;;1.91;74.32;99680.41;4910784;29;20055;-96
2023/12/08 04:08:34;;;;;;;4.75;3.63;;;;;;;2.00;74.53;99688.97;4926362;29;20033;-96
2023/12/08 04:11:00;;;;;;;5.30;4.00;;;;;;;2.06;74.33;99679.38;4927104;29;20058;-94
2023/12/08 04:13:25;;;;;;;6.30;4.30;;;;;;;1.90;74.04;99677.94;4911392;29;20050;-95
2023/12/08 04:15:51;;;;;;;6.03;4.10;;;;;;;1.94;73.92;99677.31;4910090;29;20033;-94
2023/12/08 04:18:17;;;;;;;5.38;3.75;;;;;;;1.83;74.96;99693.88;4911777;29;20035;-96
2023/12/08 04:20:56;;;;;;;6.80;3.42;;;;;;;2.01;74.12;99709.19;4925791;29;20067;-96
2023/12/08 04:23:21;;;;;;;5.15;3.38;;;;;;;1.85;75.07;99685.69;4927917;29;20031;-95
2023/12/08 04:25:47;;;;;;;5.22;3.55;;;;;;;1.88;74.48;99701.22;4910688;29;20059;-94
2023/12/08 04:28:13;;;;;;;5.43;3.63;;;;;;;1.80;75.40;99684.47;4926232;29;20106;-93
2023/12/08 04:30:38;;;;;;;4.38;3.45;;;;;;;1.89;74.71;99689.56;4926445;29;20508;-95
2023/12/08 04:33:07;;;;;;;5.65;3.70;;;;;;;1.96;74.53;99704.50;4926726;29;20031;-95
2023/12/08 04:35:32;;;;;;;5.40;3.90;;;;;;;1.61;75.53;99685.28;4928269;29;20115;-93
2023/12/08 04:37:58;;;;;;;6.43;4.35;;;;;;;1.59;75.63;99689.97;4926221;29;20031;-95
2023/12/08 04:40:23;;;;;;;5.03;3.85;;;;;;;1.52;76.41;99682.00;4926873;29;20063;-95
2023/12/08 04:42:49;;;;;;;6.00;3.60;;;;;;;1.66;76.59;99696.13;4925887;29;20471;-94
2023/12/08 04:45:18;;;;;;;5.05;3.83;;;;;;;1.58;76.56;99677.72;4925887;29;20495;-94
2023/12/08 04:47:43;;;;;;;4.43;3.17;;;;;;;1.67;76.70;99692.44;4910636;29;20106;-95
2023/12/08 04:50:12;;;;;;;5.00;4.40;;;;;;;1.86;76.06;99717.34;4926071;29;20031;-95
2023/12/08 04:52:38;;;;;;;4.13;3.13;;;;;;;1.67;76.04;99691.63;4911100;29;20030;-94
2023/12/08 04:55:04;;;;;;;4.75;3.40;;;;;;;1.74;76.31;99698.56;4912052;29;20023;-96
2023/12/08 04:57:31;;;;;;;4.75;3.58;;;;;;;1.69;75.77;99686.94;4927981;29;20027;-94
2023/12/08 04:59:57;;;;;;;3.78;3.10;;;;;;;1.85;75.13;99691.84;4927312;29;20030;-94
2023/12/08 05:02:25;;;;;;;3.80;2.72;;;;;;;1.99;74.88;99708.56;4929854;29;20051;-96
2023/12/08 05:04:51;;;;;;;7.88;4.32;;;;;;;1.95;75.68;99700.22;4911486;29;20469;-95
2023/12/08 05:07:16;;;;;;;4.50;3.33;;;;;;;1.85;75.75;99688.34;4912803;29;20031;-96
2023/12/08 05:09:42;;;;;;;42.35;24.52;;;;;;;2.01;75.29;99693.25;4911406;29;20027;-95
2023/12/08 05:12:08;;;;;;;4.10;3.17;;;;;;;2.09;74.87;99695.72;4926312;28;20027;-95
2023/12/08 05:14:35;;;;;;;3.03;2.28;;;;;;;2.00;73.78;99684.47;4930702;29;20030;-96
2023/12/08 05:17:01;;;;;;;4.68;2.85;;;;;;;1.94;74.37;99672.03;4939594;29;20125;-95
2023/12/08 05:19:41;;;;;;;4.15;3.03;;;;;;;1.89;74.72;99676.28;4917193;29;20082;-96
2023/12/08 05:22:09;;;;;;;3.33;2.70;;;;;;;2.12;74.14;99697.16;4948479;29;20027;-96
2023/12/08 05:24:36;;;;;;;3.00;2.40;;;;;;;1.94;74.90;99692.44;4933727;29;20103;-96
2023/12/08 05:27:02;;;;;;;3.55;2.78;;;;;;;1.88;74.99;99688.75;4950832;29;20035;-95
2023/12/08 05:29:28;;;;;;;3.10;2.60;;;;;;;1.91;74.54;99712.28;4935788;29;20111;-96
2023/12/08 05:31:58;;;;;;;5.90;4.70;;;;;;;2.05;75.22;99726.34;4916613;29;20023;-95
2023/12/08 05:34:27;;;;;;;8.52;6.95;;;;;;;2.21;74.25;99719.81;4931656;29;20023;-94
2023/12/08 05:36:52;;;;;;;11.63;8.90;;;;;;;2.31;73.24;99724.72;4916411;29;20493;-94
2023/12/08 05:39:21;;;;;;;6.35;4.78;;;;;;;2.40;72.91;99720.81;4931318;29;20034;-96
2023/12/08 05:41:46;;;;;;;8.80;7.00;;;;;;;2.24;73.23;99706.13;4915927;29;20019;-94
2023/12/08 05:44:12;;;;;;;5.65;4.50;;;;;;;2.51;73.19;99744.13;4933366;29;20026;-95
2023/12/08 05:46:37;;;;;;;7.80;5.95;;;;;;;2.25;73.12;99705.09;4914955;29;20503;-95
2023/12/08 05:49:03;;;;;;;6.50;5.15;;;;;;;2.48;73.43;99735.75;4932029;29;20015;-93
2023/12/08 05:51:29;;;;;;;12.20;6.32;;;;;;;2.36;72.85;99716.94;4931773;29;20114;-94
2023/12/08 05:53:54;;;;;;;12.70;7.70;;;;;;;2.51;73.54;99719.38;4932577;29;20051;-94
2023/12/08 05:56:23;;;;;;;6.78;4.47;;;;;;;2.51;72.85;99728.19;4917567;29;20481;-95
2023/12/08 05:58:49;;;;;;;10.25;7.72;;;;;;;2.62;73.81;99748.81;4916494;29;20027;-95
2023/12/08 06:01:14;;;;;;;8.95;6.97;;;;;;;2.55;74.58;99732.06;4917071;29;20042;-93
2023/12/08 06:03:44;;;;;;;46.25;24.55;;;;;;;2.59;74.76;99746.56;4915589;29;20086;-94
2023/12/08 06:06:09;;;;;;;20.17;9.95;;;;;;;2.60;74.16;99742.88;4958728;28;20046;-91
2023/12/08 06:08:35;;;;;;;10.68;6.82;;;;;;;2.65;73.29;99746.75;4948047;28;20426;-92
2023/12/08 06:11:38;;;;;;;7.72;4.80;;;;;;;2.61;71.88;99714.44;4935722;28;20011;-95
2023/12/08 06:17:43;;;;;;;7.18;5.57;;;;;;;2.62;74.29;99724.06;4823763;29;20092;-96
2023/12/08 06:20:10;;;;;;;9.80;5.32;;;;;;;2.67;73.27;99740.19;5251083;23;20449;-95
2023/12/08 06:25:45;;;;;;;12.25;7.18;;;;;;;2.81;74.49;99731.16;4979132;28;20056;-95
2023/12/08 06:28:13;;;;;;;9.45;6.05;;;;;;;2.90;74.33;99722.97;5004604;28;20075;-96
2023/12/08 06:30:40;;;;;;;10.27;6.47;;;;;;;2.93;73.38;99730.53;4956183;28;20023;-96
2023/12/08 06:33:22;;;;;;;7.68;5.07;;;;;;;2.86;72.40;99757.13;4970805;28;20481;-95
2023/12/08 06:35:49;;;;;;;16.73;10.05;;;;;;;2.76;72.67;99719.53;4987095;28;20046;-95
2023/12/08 06:41:42;;;;;;;8.25;5.43;;;;;;;2.84;71.88;99721.94;4952458;28;20084;-96
2023/12/08 06:44:17;;;;;;;12.82;8.25;;;;;;;3.06;71.98;99758.94;4937091;28;20183;-96
2023/12/08 06:47:06;;;;;;;12.10;8.15;;;;;;;3.01;70.54;99743.63;4921199;29;20036;-96
2023/12/08 06:49:43;;;;;;;11.88;7.10;;;;;;;2.95;70.65;99741.78;4937821;29;20101;-96
2023/12/08 06:52:19;;;;;;;12.90;7.35;;;;;;;2.98;70.76;99750.16;4930883;29;20569;-96
2023/12/08 06:54:45;;;;;;;12.77;8.35;;;;;;;2.88;71.54;99773.69;4959720;28;20045;-95
2023/12/08 06:57:12;;;;;;;15.68;8.65;;;;;;;2.76;71.89;99757.59;4970216;28;20022;-94
2023/12/08 06:59:38;;;;;;;11.23;6.60;;;;;;;3.04;71.30;99780.41;4952369;28;20058;-95
2023/12/08 07:02:07;;;;;;;12.63;7.65;;;;;;;3.12;70.55;99764.22;4970860;28;20030;-96
2023/12/08 07:17:46;;;;;;;5.90;3.92;;;;;;;2.85;71.09;99775.97;5001824;28;20054;-96
2023/12/08 07:22:50;;;;;;;5.20;3.22;;;;;;;2.78;71.82;99778.63;5137804;23;20093;-94
2023/12/08 07:25:16;;;;;;;5.60;2.63;;;;;;;2.78;71.93;99771.50;4919133;29;20019;-95
2023/12/08 07:55:38;;;;;;;3.97;3.13;;;;;;;3.22;71.48;99777.09;5005018;28;20109;-96
2023/12/08 07:58:52;;;;;;;5.05;3.70;;;;;;;3.22;71.13;99769.13;4947774;29;20078;-95
2023/12/08 08:01:24;;;;;;;9.57;5.28;;;;;;;3.44;71.78;99789.09;4966081;29;20023;-95
2023/12/08 08:04:12;;;;;;;10.80;6.63;;;;;;;3.48;72.82;99781.47;4930399;29;20031;-96
2023/12/08 08:06:38;;;;;;;9.20;6.20;;;;;;;3.77;72.46;99798.75;4925456;29;20485;-95
2023/12/08 08:09:04;;;;;;;8.02;5.63;;;;;;;3.88;71.64;99807.09;4922633;29;20036;-95
2023/12/08 08:11:39;;;;;;;9.23;5.65;;;;;;;3.76;71.74;99798.97;4912155;29;20035;-96
2023/12/08 08:14:17;;;;;;;47.25;27.15;;;;;;;3.80;71.37;99778.88;4919887;29;20028;-96
2023/12/08 08:22:30;;;;;;;9.88;6.70;;;;;;;4.02;70.85;99796.13;5499856;23;20051;-96
2023/12/08 08:25:39;;;;;;;6.28;5.15;;;;;;;4.10;70.59;99824.38;5110898;23;20063;-96
2023/12/08 08:28:26;;;;;;;;;;;;;;;;;;;;;
2023/12/08 08:52:35;;;;;;;8.60;6.22;;;;;;;4.14;70.20;99809.59;5146261;23;20059;-95
2023/12/08 08:57:47;;;;;;;24.15;14.15;;;;;;;3.85;70.54;99765.72;5224062;23;20054;-96
2023/12/08 09:00:14;;;;;;;12.95;9.05;;;;;;;3.94;71.91;99775.06;4980944;28;20049;-96
2023/12/08 09:14:50;;;;;;;10.23;6.28;;;;;;;3.60;71.09;99753.16;4998210;28;20054;-94
2023/12/08 09:17:33;;;;;;;8.27;6.40;;;;;;;3.64;71.14;99738.38;4934656;28;20069;-95
2023/12/08 09:20:08;;;;;;;11.88;6.65;;;;;;;3.59;72.66;99748.88;4953456;28;20500;-94
2023/12/08 09:23:54;;;;;;;11.38;7.65;;;;;;;3.60;72.73;99739.84;4952457;28;20053;-96
2023/12/08 09:27:15;;;;;;;15.48;8.75;;;;;;;3.73;73.24;99772.75;4918236;28;20024;-96
2023/12/08 09:29:41;;;;;;;9.88;6.55;;;;;;;3.51;72.73;99756.28;4970741;28;20030;-93
2023/12/08 09:35:33;;;;;;;11.73;7.28;;;;;;;3.77;72.82;99761.47;4971744;28;20037;-96
2023/12/08 09:41:09;;;;;;;11.23;7.30;;;;;;;3.90;72.30;99727.78;4934475;28;20036;-93
2023/12/08 09:43:34;;;;;;;11.90;8.57;;;;;;;4.14;71.71;99750.16;4962595;28;20026;-95
2023/12/08 09:46:00;;;;;;;6.00;4.60;;;;;;;3.73;68.63;99714.97;4994622;28;20030;-94
2023/12/08 09:48:33;;;;;;;6.80;5.13;;;;;;;4.05;67.79;99737.09;4966922;28;20026;-96
2023/12/08 09:51:04;;;;;;;5.88;4.35;;;;;;;4.01;67.07;99719.09;4970101;28;20034;-96
2023/12/08 09:53:30;;;;;;;6.50;4.88;;;;;;;4.01;68.08;99708.44;4979985;28;20026;-95
2023/12/08 09:55:56;;;;;;;4.90;3.95;;;;;;;3.97;68.13;99715.25;4966820;28;20029;-93
2023/12/08 09:58:22;;;;;;;7.32;5.00;;;;;;;4.08;67.77;99705.72;4968232;28;20022;-93
2023/12/08 10:00:58;;;;;;;6.18;3.60;;;;;;;3.87;67.62;99701.59;4970264;28;20064;-94
2023/12/08 10:03:25;;;;;;;10.95;7.45;;;;;;;4.01;67.82;99690.59;4958478;28;20029;-96
2023/12/08 10:06:37;;;;;;;6.35;4.20;;;;;;;4.10;68.73;99699.13;4971449;28;20066;-94
2023/12/08 10:28:11;;;;;;;8.52;5.82;;;;;;;4.44;69.57;99672.97;4993231;28;20041;-96
2023/12/08 10:40:51;;;;;;;8.90;6.40;;;;;;;4.21;69.32;99658.47;4891802;29;20043;-95
2023/12/08 10:43:28;;;;;;;9.68;6.22;;;;;;;4.23;70.04;99668.88;4909521;29;20039;-96
2023/12/08 10:45:56;;;;;;;7.38;5.65;;;;;;;4.24;69.76;99668.69;4965019;28;20046;-94
2023/12/08 10:48:25;;;;;;;8.70;6.13;;;;;;;4.23;70.31;99655.56;4935074;28;20201;-94
2023/12/08 11:18:21;;;;;;;10.27;7.28;;;;;;;4.18;71.83;99608.25;5645121;23;20055;-96
2023/12/08 11:21:12;;;;;;;10.35;6.93;;;;;;;4.17;71.06;99641.28;4951995;29;20111;-96
2023/12/08 11:23:52;;;;;;;19.10;10.80;;;;;;;3.89;70.72;99608.97;4945479;29;20023;-96
2023/12/08 11:26:40;;;;;;;10.18;7.20;;;;;;;4.02;71.75;99633.59;4938961;29;20015;-96
2023/12/08 11:29:54;;;;;;;10.90;8.00;;;;;;;3.55;72.60;99603.91;4975137;28;20074;-96
2023/12/08 11:33:00;;;;;;;11.65;8.77;;;;;;;3.81;73.48;99640.16;4938048;29;20088;-96
2023/12/08 12:29:39;;;;;;;16.02;9.80;;;;;;;4.41;70.45;99618.25;4731361;23;20309;-89
2023/12/08 12:32:07;;;;;;;15.43;9.95;;;;;;;4.48;70.02;99626.19;4977212;28;20053;-92
2023/12/08 12:34:33;;;;;;;14.40;10.00;;;;;;;4.44;70.33;99601.00;4964362;28;20030;-93
2023/12/08 12:36:59;;;;;;;17.42;11.70;;;;;;;4.47;70.37;99600.56;4986001;28;20116;-93
2023/12/08 12:39:25;;;;;;;18.77;12.02;;;;;;;4.23;70.78;99583.59;4977143;28;20207;-93
2023/12/08 12:41:51;;;;;;;22.35;14.65;;;;;;;4.55;70.55;99602.13;4948780;28;20456;-91
2023/12/08 12:44:58;;;;;;;;;;;;;;;;;;;;;
2023/12/08 12:47:27;;;;;;;11.82;8.70;;;;;;;4.60;70.25;99588.94;4980644;28;20118;-96
2023/12/08 12:50:20;;;;;;;9.05;6.40;;;;;;;4.18;69.91;99597.59;4954443;28;20029;-95
2023/12/08 12:53:57;;;;;;;;;;;;;;;;;;;;;
2023/12/08 13:00:15;;;;;;;;;;;;;;;;;;;;;
2023/12/08 13:03:05;;;;;;;11.55;7.20;;;;;;;4.40;68.75;99623.81;4975528;28;20109;-96
2023/12/08 13:05:45;;;;;;;7.93;4.90;;;;;;;4.34;69.77;99622.88;4984239;28;20030;-95
2023/12/08 13:21:40;;;;;;;;;;;;;;;;;;;;;
2023/12/08 13:24:11;;;;;;;10.70;6.65;;;;;;;4.23;69.75;99634.25;4915976;29;20079;-96
2023/12/08 13:26:50;;;;;;;12.00;7.53;;;;;;;4.12;70.45;99621.66;4941431;28;20043;-96
2023/12/08 13:29:23;;;;;;;14.88;7.55;;;;;;;4.31;70.63;99649.94;4938483;28;20524;-96
2023/12/08 13:31:52;;;;;;;14.95;9.45;;;;;;;4.19;72.98;99627.72;4951192;28;20126;-96
2023/12/08 13:36:56;;;;;;;13.82;9.48;;;;;;;4.29;71.11;99637.88;5323486;23;20066;-95
2023/12/08 13:39:28;;;;;;;12.80;8.57;;;;;;;4.20;70.77;99640.03;4994358;28;20030;-96
2023/12/08 13:42:12;;;;;;;15.93;8.95;;;;;;;3.96;70.93;99634.47;4964898;28;20066;-96
2023/12/08 13:45:25;;;;;;;;;;;;;;;;;;;;;
2023/12/08 13:48:23;;;;;;;12.60;8.07;;;;;;;3.80;70.90;99651.03;5296460;23;20054;-96
2023/12/08 13:51:14;;;;;;;12.38;7.13;;;;;;;3.75;71.52;99629.56;4959813;28;20035;-96
2023/12/08 13:56:15;;;;;;;14.70;8.57;;;;;;;3.96;70.75;99644.34;5254016;23;20174;-96
2023/12/08 13:59:21;;;;;;;14.15;8.48;;;;;;;4.05;71.02;99670.50;4962094;28;20018;-96
2023/12/08 14:07:52;;;;;;;12.50;7.93;;;;;;;4.03;70.88;99637.09;5087338;23;20054;-95
2023/12/08 14:10:21;;;;;;;10.90;6.03;;;;;;;3.94;70.40;99643.72;4975443;28;20066;-96
2023/12/08 14:12:50;;;;;;;10.35;6.47;;;;;;;3.87;71.47;99637.66;4958832;28;20041;-96
2023/12/08 14:15:31;;;;;;;9.65;6.10;;;;;;;4.12;71.08;99667.75;4978701;28;20057;-96
2023/12/08 14:18:44;;;;;;;9.90;6.32;;;;;;;3.97;70.16;99649.44;4977028;28;20512;-96
2023/12/08 14:21:22;;;;;;;;;;;;;;;;;;;;;
2023/12/08 14:24:05;;;;;;;13.75;8.45;;;;;;;4.10;69.61;99677.81;4997579;28;20058;-96
2023/12/08 14:26:51;;;;;;;10.88;7.28;;;;;;;4.13;70.33;99674.75;4991388;28;20110;-96
2023/12/08 14:37:28;;;;;;;11.30;8.55;;;;;;;3.83;71.23;99656.72;5391248;23;20112;-96
2023/12/08 14:40:10;;;;;;;11.18;6.60;;;;;;;3.87;71.77;99661.63;4978691;28;20512;-94
2023/12/08 14:42:51;;;;;;;12.07;7.35;;;;;;;3.76;71.70;99647.19;4981957;28;20034;-95
2023/12/08 14:45:56;;;;;;;10.90;7.40;;;;;;;3.67;71.85;99646.59;4961448;28;20053;-95
2023/12/08 14:49:07;;;;;;;;;;;;;;;;;;;;;
2023/12/08 14:52:13;;;;;;;12.00;7.28;;;;;;;3.85;72.18;99672.50;4901060;29;20042;-94
2023/12/08 14:54:47;;;;;;;12.40;8.23;;;;;;;3.97;72.30;99676.09;4912054;29;20037;-96
2023/12/08 14:59:49;;;;;;;17.65;10.02;;;;;;;4.05;70.45;99675.00;5658903;23;20050;-96
2023/12/08 15:06:05;;;;;;;;;;;;;;;;;;;;;
2023/12/08 15:11:16;;;;;;;10.90;7.53;;;;;;;3.80;71.84;99664.34;5004387;28;20047;-94
2023/12/08 15:13:43;;;;;;;13.02;8.20;;;;;;;3.99;71.29;99686.53;4969969;28;20014;-95
2023/12/08 15:16:20;;;;;;;10.63;7.32;;;;;;;3.77;70.88;99670.91;4955813;28;20492;-96
2023/12/08 15:18:45;;;;;;;15.85;10.60;;;;;;;3.88;71.17;99668.56;4988858;28;20030;-96
2023/12/08 15:28:02;;;;;;;10.45;7.35;;;;;;;3.84;69.82;99673.53;4969930;28;20100;-95
2023/12/08 15:30:30;;;;;;;15.23;9.00;;;;;;;3.96;69.52;99682.44;4990223;28;20038;-95
2023/12/08 15:33:31;;;;;;;16.17;9.82;;;;;;;3.80;69.74;99662.50;4935191;29;20038;-96
2023/12/08 15:35:58;;;;;;;12.98;8.48;;;;;;;3.89;70.08;99672.88;4942748;28;20058;-95
2023/12/08 15:41:07;;;;;;;12.77;8.47;;;;;;;3.80;69.32;99675.81;5599973;23;20067;-96
2023/12/08 15:47:04;;;;;;;23.95;11.90;;;;;;;3.84;69.70;99686.88;5002908;28;20060;-96
2023/12/08 15:49:33;;;;;;;26.77;12.68;;;;;;;4.08;70.05;99709.19;4979101;28;20061;-96
2023/12/08 15:52:33;;;;;;;46.70;23.15;;;;;;;3.87;70.12;99686.41;4977708;28;20053;-96
2023/12/08 15:55:42;;;;;;;;;;;;;;;;;;;;;
2023/12/08 15:58:09;;;;;;;13.75;7.40;;;;;;;3.91;70.54;99702.78;4966603;28;20578;-96
2023/12/08 16:01:27;;;;;;;;;;;;;;;;;;;;;
2023/12/08 16:04:22;;;;;;;14.50;8.50;;;;;;;3.85;70.61;99715.91;4940408;29;20115;-96
2023/12/08 16:30:28;;;;;;;13.50;8.63;;;;;;;3.58;71.06;99703.81;5000893;28;20066;-95
2023/12/08 16:35:39;;;;;;;16.40;8.68;;;;;;;3.72;70.82;99710.69;5253497;23;20157;-96
2023/12/08 16:51:46;;;;;;;11.80;7.78;;;;;;;3.87;70.42;99689.06;4987733;28;20109;-96
2023/12/08 16:54:26;;;;;;;10.90;7.20;;;;;;;3.88;69.57;99698.72;4960003;28;20121;-96
2023/12/08 16:57:09;;;;;;;;;;;;;;;;;;;;;
2023/12/08 16:59:53;;;;;;;12.50;8.50;;;;;;;3.69;69.71;99702.31;4926509;29;20043;-96
2023/12/08 17:02:47;;;;;;;14.52;9.15;;;;;;;3.88;68.92;99717.38;4953775;28;20094;-95
2023/12/08 17:05:50;;;;;;;16.42;10.07;;;;;;;3.88;68.85;99716.53;4976438;28;20019;-96
2023/12/08 17:08:46;;;;;;;;;;;;;;;;;;;;;
2023/12/08 17:11:14;;;;;;;12.57;7.70;;;;;;;3.46;71.06;99727.63;4967156;28;20089;-96
2023/12/08 17:13:47;;;;;;;16.77;8.65;;;;;;;3.64;70.34;99725.06;4968260;28;20030;-95
2023/12/08 17:23:06;;;;;;;21.90;13.93;;;;;;;3.37;72.51;99713.75;4948472;29;20041;-96
2023/12/08 17:25:38;;;;;;;20.98;13.15;;;;;;;3.38;73.19;99720.75;4898999;29;20414;-96
2023/12/08 17:28:05;;;;;;;18.98;12.18;;;;;;;3.40;73.28;99741.78;4936415;28;20440;-96
2023/12/08 17:30:33;;;;;;;23.00;12.85;;;;;;;3.33;73.25;99727.72;4947998;28;20027;-95
2023/12/08 17:33:01;;;;;;;19.42;12.30;;;;;;;3.26;74.16;99742.88;4944225;28;20027;-95
2023/12/08 17:35:30;;;;;;;22.85;11.00;;;;;;;3.21;73.65;99741.66;4948029;28;20061;-96
2023/12/08 17:38:17;;;;;;;;;;;;;;;;;;;;;
2023/12/08 17:40:46;;;;;;;16.67;10.73;;;;;;;3.33;73.95;99757.00;4971032;28;20046;-96